Portada
METAR-TAF:

METAR-TAF

Aeroports :

Chiang Rai, Tailàndia

latitud: 19-57-08N, longitud: 099-52-59E, altitud: 390 m

Observació

L'informe es va fer fa 1 hora i 14 minuts, a les 01:00 UTC
Vent 4 kt del Sud
Temperatura 25°C
Humitat 94%
Pressió 1010 hPa
Visibilitat 10 km o més
Escasses núvols a una alçada de 3000 ft
Cel ennuvolat a una alçada de 7000 ft

METAR: VTCT 190100Z 17004KT 9999 FEW030 BKN070 25/24 Q1010 NOSIG

Hora: 09:14 (02:14 UTC)

Pronòstic

L'informe es va fer fa 3 hores i 14 minuts, a les 23:00 UTC
Pronòstic vàlid del 19 a les 00 UTC al 20 a les 06 UTC
Vent 5 kt del Sud-Oest
Visibilitat 10 km o més
Núvols disperses a una alçada de 2500 ft
Temporalment
l' 19 a les 07 UTC al 19 a les 13 UTC
Vent 15 kt amb direcció variable amb ràfegues de 30 kt
Visibilitat: 4000 m
Escasses núvols a una alçada de 1800 ft, Cumulonimbus.
Cel ennuvolat a una alçada de 2500 ft
tempesta, pluja

TAF: VTCT 182300Z 1900/2006 22005KT 9999 SCT025 TEMPO 1907/1913 VRB15G30KT 4000 TSRA FEW018CB BKN025

Observacions i pronòstics meteorològics de més de 4000 aeroports (METAR i TAF).

Les estacions disponibles són els punts grocs i vermells al mapa.

Posi el ratolí al punt desitjat per veure el nom de l'estació.

Feu clic per veure les observacions i els pronòstics meteorològics.

Per canviar el mapa: feu clic els botons verds amb una creu de color negre per apropar; al botó verd amb un guió per allunyar la imatge; o en les fletxes verdes per a mapes adjacents.


METAR-TAF: